createdAt,value
2018-07-10T00:02:16.011Z,15.40
2018-07-10T00:06:59.537Z,17.85
2018-07-10T00:09:40.129Z,6.45
2018-07-10T00:12:08.690Z,8.13
2018-07-10T00:14:37.670Z,3.62
2018-07-10T00:17:06.177Z,6.35
2018-07-10T00:19:34.677Z,5.15
2018-07-10T00:22:03.182Z,10.60
2018-07-10T00:24:32.010Z,6.83
2018-07-10T00:27:00.473Z,8.28
2018-07-10T00:29:28.970Z,5.67
2018-07-10T00:31:57.445Z,4.72
2018-07-10T00:34:25.923Z,5.58
2018-07-10T00:36:54.672Z,6.92
2018-07-10T00:39:23.153Z,6.97
2018-07-10T00:41:51.642Z,8.35
2018-07-10T00:44:20.452Z,3.08
2018-07-10T00:46:48.971Z,6.28
2018-07-10T00:49:17.806Z,5.22
2018-07-10T00:51:46.311Z,6.92
2018-07-10T00:54:14.825Z,3.77
2018-07-10T00:56:43.334Z,10.10
2018-07-10T00:59:11.876Z,6.25
2018-07-10T01:01:40.377Z,3.50
2018-07-10T01:04:08.875Z,6.45
2018-07-10T01:06:37.385Z,3.40
2018-07-10T01:09:05.899Z,5.65
2018-07-10T01:11:34.406Z,5.05
2018-07-10T01:14:02.902Z,4.90
2018-07-10T01:16:35.317Z,5.83
2018-07-10T01:19:08.305Z,4.92
2018-07-10T01:21:36.815Z,9.70
2018-07-10T01:24:06.321Z,4.37
2018-07-10T01:26:36.572Z,5.30
2018-07-10T01:29:11.248Z,6.75
2018-07-10T01:31:44.337Z,3.20
2018-07-10T01:34:14.406Z,4.67
2018-07-10T01:36:42.905Z,7.33
2018-07-10T01:39:11.421Z,4.97
2018-07-10T01:41:39.945Z,5.12
2018-07-10T01:44:08.429Z,5.25
2018-07-10T01:46:36.938Z,4.85
2018-07-10T01:49:05.809Z,4.70
2018-07-10T01:51:34.984Z,5.72
2018-07-10T01:54:03.541Z,3.90
2018-07-10T01:56:32.275Z,6.15
2018-07-10T01:59:01.197Z,2.85
2018-07-10T02:01:30.668Z,20.88
2018-07-10T02:04:00.470Z,3.20
2018-07-10T02:06:29.239Z,3.92
2018-07-10T02:08:58.203Z,12.88
2018-07-10T02:11:27.251Z,7.90
2018-07-10T02:13:55.765Z,7.20
2018-07-10T02:16:24.417Z,8.20
2018-07-10T02:18:53.562Z,3.52
2018-07-10T02:21:22.070Z,5.50
2018-07-10T02:23:50.577Z,8.00
2018-07-10T02:26:22.435Z,3.77
2018-07-10T02:28:51.949Z,6.10
2018-07-10T02:31:20.509Z,7.05
2018-07-10T02:33:49.401Z,4.83
2018-07-10T02:36:18.142Z,10.32
2018-07-10T02:38:49.101Z,4.55
2018-07-10T02:41:19.967Z,5.75
2018-07-10T02:43:52.654Z,4.97
2018-07-10T02:46:21.466Z,4.05
2018-07-10T02:48:50.218Z,6.80
2018-07-10T02:51:18.717Z,4.12
2018-07-10T02:53:47.333Z,4.15
2018-07-10T02:56:17.533Z,9.75
2018-07-10T02:58:48.185Z,5.20
2018-07-10T03:01:16.705Z,7.87
2018-07-10T03:03:45.433Z,3.98
2018-07-10T03:06:14.074Z,6.80
2018-07-10T03:08:42.909Z,6.62
2018-07-10T03:11:12.814Z,6.30
2018-07-10T03:13:41.658Z,5.83
2018-07-10T03:16:10.157Z,6.65
2018-07-10T03:18:38.757Z,6.62
2018-07-10T03:21:07.582Z,8.28
2018-07-10T03:23:36.206Z,5.42
2018-07-10T03:26:04.751Z,5.12
2018-07-10T03:28:33.252Z,7.90
2018-07-10T03:31:01.881Z,7.28
2018-07-10T03:33:30.391Z,7.35
2018-07-10T03:35:59.230Z,4.58
2018-07-10T03:38:27.924Z,8.73
2018-07-10T03:40:56.414Z,4.60
2018-07-10T03:43:25.037Z,5.53
2018-07-10T03:45:53.542Z,4.05
2018-07-10T03:48:22.033Z,6.45
2018-07-10T03:50:51.188Z,6.65
2018-07-10T03:53:21.176Z,10.00
2018-07-10T03:55:49.684Z,4.97
2018-07-10T03:58:19.264Z,11.00
2018-07-10T04:00:48.672Z,4.05
2018-07-10T04:03:18.625Z,5.20
2018-07-10T04:05:47.337Z,11.10
2018-07-10T04:08:16.086Z,6.78
2018-07-10T04:10:45.594Z,5.65
2018-07-10T04:13:18.298Z,6.05
2018-07-10T04:15:47.702Z,10.72
2018-07-10T04:18:18.334Z,8.58
2018-07-10T04:21:20.918Z,6.45
2018-07-10T04:23:53.041Z,6.17
2018-07-10T04:26:22.354Z,5.67
2018-07-10T04:29:04.808Z,7.10
2018-07-10T04:31:42.280Z,5.10
2018-07-10T04:34:10.809Z,5.40
2018-07-10T04:36:39.321Z,5.97
2018-07-10T04:39:07.815Z,5.80
2018-07-10T04:41:38.378Z,5.22
2018-07-10T04:44:11.956Z,9.33
2018-07-10T04:46:42.346Z,10.98
2018-07-10T04:49:47.659Z,7.03
2018-07-10T04:52:28.581Z,5.45
2018-07-10T04:55:03.489Z,5.97
2018-07-10T04:57:35.246Z,9.80
2018-07-10T05:00:04.798Z,5.30
2018-07-10T05:02:34.185Z,6.15
2018-07-10T05:05:03.400Z,7.05
2018-07-10T05:07:31.903Z,10.60
2018-07-10T05:10:00.483Z,7.53
2018-07-10T05:12:30.045Z,11.28
2018-07-10T05:14:59.517Z,9.95
2018-07-10T05:17:28.017Z,6.35
2018-07-10T05:19:56.874Z,8.80
2018-07-10T05:22:28.032Z,13.03
2018-07-10T05:24:57.664Z,14.93
2018-07-10T05:27:26.242Z,10.18
2018-07-10T05:29:55.184Z,13.78
2018-07-10T05:32:23.710Z,8.70
2018-07-10T05:34:52.596Z,18.37
2018-07-10T05:37:33.822Z,8.38
2018-07-10T05:40:09.468Z,11.68
2018-07-10T05:42:47.079Z,8.78
2018-07-10T05:45:17.368Z,7.15
2018-07-10T05:47:46.706Z,15.32
2018-07-10T05:50:17.445Z,11.22
2018-07-10T05:52:46.623Z,10.18
2018-07-10T05:55:17.469Z,8.60
2018-07-10T05:57:46.986Z,8.58
2018-07-10T06:00:17.046Z,7.85
2018-07-10T06:02:45.865Z,10.45
2018-07-10T06:05:14.349Z,9.53
2018-07-10T06:07:42.894Z,10.85
2018-07-10T06:10:11.473Z,9.55
2018-07-10T06:12:39.990Z,9.00
2018-07-10T06:15:08.531Z,9.33
2018-07-10T06:17:37.613Z,10.30
2018-07-10T06:20:06.450Z,9.20
2018-07-10T06:22:34.955Z,12.10
2018-07-10T06:25:05.065Z,15.85
2018-07-10T06:27:39.752Z,9.60
2018-07-10T06:30:09.932Z,15.63
2018-07-10T06:32:49.752Z,16.70
2018-07-10T06:35:30.063Z,12.78
2018-07-10T06:37:58.610Z,13.25
2018-07-10T06:40:28.052Z,10.85
2018-07-10T06:43:12.261Z,15.78
2018-07-10T06:45:40.765Z,19.27
2018-07-10T06:48:11.835Z,12.45
2018-07-10T06:50:40.650Z,10.18
2018-07-10T06:53:10.766Z,12.23
2018-07-10T06:55:50.666Z,15.13
2018-07-10T06:58:19.189Z,12.20
2018-07-10T07:00:47.725Z,8.55
2018-07-10T07:03:17.949Z,12.23
2018-07-10T07:05:47.899Z,16.02
2018-07-10T07:08:16.530Z,10.98
2018-07-10T07:10:45.707Z,11.28
2018-07-10T07:13:14.229Z,8.75
2018-07-10T07:15:43.672Z,10.43
2018-07-10T07:18:13.301Z,9.83
2018-07-10T07:20:41.846Z,10.25
2018-07-10T07:23:10.952Z,10.65
2018-07-10T07:25:39.778Z,9.43
2018-07-10T07:28:09.613Z,6.47
2018-07-10T07:30:38.160Z,6.85
2018-07-10T07:33:06.713Z,10.40
2018-07-10T07:35:35.860Z,8.63
2018-07-10T07:38:05.734Z,10.20
2018-07-10T07:40:34.569Z,10.82
2018-07-10T07:43:03.082Z,12.82
2018-07-10T07:45:31.576Z,9.85
2018-07-10T07:48:00.104Z,9.83
2018-07-10T07:50:28.610Z,8.20
2018-07-10T07:56:10.578Z,6.87
2018-07-10T07:58:39.242Z,6.92
2018-07-10T08:01:07.817Z,6.15
2018-07-10T08:03:37.294Z,6.70
2018-07-10T08:06:07.261Z,6.60
2018-07-10T08:08:37.013Z,8.80
2018-07-10T08:11:05.695Z,5.47
2018-07-10T08:13:34.962Z,6.83
2018-07-10T08:16:03.475Z,8.88
2018-07-10T08:18:31.978Z,6.05
2018-07-10T08:21:00.501Z,7.50
2018-07-10T08:23:30.200Z,8.48
2018-07-10T08:25:58.931Z,9.63
2018-07-10T08:28:28.990Z,10.15
2018-07-10T08:30:58.137Z,7.30
2018-07-10T08:33:26.707Z,7.87
2018-07-10T08:35:55.377Z,7.35
2018-07-10T08:38:35.428Z,8.20
2018-07-10T08:41:04.101Z,7.40
2018-07-10T08:43:32.812Z,6.95
2018-07-10T08:46:01.826Z,8.00
2018-07-10T08:48:30.885Z,10.82
2018-07-10T08:50:59.602Z,8.58
2018-07-10T08:53:28.152Z,8.85
2018-07-10T08:55:56.707Z,8.33
2018-07-10T08:58:26.958Z,7.28
2018-07-10T09:00:55.437Z,9.03
2018-07-10T09:03:24.166Z,9.43
2018-07-10T09:05:53.045Z,6.92
2018-07-10T09:08:21.909Z,6.25
2018-07-10T09:10:50.393Z,13.05
2018-07-10T09:13:18.929Z,11.45
2018-07-10T09:15:47.463Z,7.45
2018-07-10T09:18:15.964Z,11.53
2018-07-10T09:20:48.801Z,11.80
2018-07-10T09:23:18.480Z,6.05
2018-07-10T09:25:49.397Z,6.90
2018-07-10T09:28:17.904Z,6.90
2018-07-10T09:30:46.420Z,7.12
2018-07-10T09:33:14.938Z,4.58
2018-07-10T09:35:43.622Z,4.72
2018-07-10T09:38:13.324Z,4.15
2018-07-10T09:40:42.099Z,7.30
2018-07-10T09:43:11.271Z,7.37
2018-07-10T09:45:39.907Z,5.45
2018-07-10T09:48:10.340Z,4.75
2018-07-10T09:50:39.420Z,5.70
2018-07-10T09:53:08.028Z,4.97
2018-07-10T09:55:38.814Z,3.70
2018-07-10T09:58:07.474Z,5.05
2018-07-10T10:00:42.012Z,5.37
2018-07-10T10:03:11.026Z,5.87
2018-07-10T10:05:42.061Z,4.87
2018-07-10T10:08:11.731Z,3.85
2018-07-10T10:10:40.486Z,6.20
2018-07-10T10:13:09.297Z,4.22
2018-07-10T10:15:38.205Z,3.83
2018-07-10T10:18:09.960Z,6.83
2018-07-10T10:20:40.102Z,4.30
2018-07-10T10:23:10.325Z,5.90
2018-07-10T10:25:40.283Z,4.37
2018-07-10T10:28:09.948Z,3.98
2018-07-10T10:30:39.886Z,3.92
2018-07-10T10:33:09.268Z,3.92
2018-07-10T10:35:37.806Z,2.95
2018-07-10T10:38:06.629Z,3.80
2018-07-10T10:40:39.391Z,3.55
2018-07-10T10:43:10.761Z,4.03
2018-07-10T10:45:44.529Z,3.30
2018-07-10T10:48:15.481Z,5.87
2018-07-10T10:50:51.500Z,5.30
2018-07-10T10:53:21.905Z,4.28
2018-07-10T10:55:50.414Z,11.78
2018-07-10T10:58:19.665Z,4.03
2018-07-10T11:00:48.174Z,7.15
2018-07-10T11:03:17.125Z,5.72
2018-07-10T11:05:45.749Z,6.42
2018-07-10T11:08:14.305Z,6.92
2018-07-10T11:10:43.789Z,5.87
2018-07-10T11:13:13.630Z,10.95
2018-07-10T11:15:44.425Z,4.83
2018-07-10T11:18:18.909Z,3.95
2018-07-10T11:20:53.018Z,4.33
2018-07-10T11:23:30.763Z,7.08
2018-07-10T11:26:06.745Z,5.03
2018-07-10T11:28:35.274Z,5.12
2018-07-10T11:31:03.801Z,7.35
2018-07-10T11:33:32.306Z,6.33
2018-07-10T11:36:01.227Z,4.30
2018-07-10T11:38:29.745Z,4.28
2018-07-10T11:40:58.293Z,3.90
2018-07-10T11:43:27.340Z,4.75
2018-07-10T11:45:56.950Z,4.20
2018-07-10T11:48:25.966Z,5.40
2018-07-10T11:50:54.515Z,7.30
2018-07-10T11:53:23.048Z,6.72
2018-07-10T11:55:51.566Z,5.12
2018-07-10T11:58:20.085Z,5.05
2018-07-10T12:00:48.873Z,5.08
2018-07-10T12:03:17.993Z,5.20
2018-07-10T12:05:46.502Z,4.00
2018-07-10T12:08:15.001Z,3.95
2018-07-10T12:10:45.927Z,4.25
2018-07-10T12:13:14.429Z,4.92
2018-07-10T12:15:44.035Z,4.33
2018-07-10T12:18:14.649Z,7.12
2018-07-10T12:20:43.805Z,6.33
2018-07-10T12:23:13.183Z,7.80
2018-07-10T12:25:45.158Z,4.83
2018-07-10T12:28:14.794Z,4.97
2018-07-10T12:30:43.915Z,5.95
2018-07-10T12:33:12.433Z,6.70
2018-07-10T12:35:41.562Z,5.00
2018-07-10T12:38:10.890Z,5.58
2018-07-10T12:40:39.381Z,6.78
2018-07-10T12:43:07.891Z,7.90
2018-07-10T12:45:37.019Z,5.42
2018-07-10T12:48:05.989Z,5.95
2018-07-10T12:50:34.498Z,6.28
2018-07-10T12:53:03.288Z,6.40
2018-07-10T12:55:33.931Z,5.35
2018-07-10T12:58:02.537Z,7.37
2018-07-10T13:00:32.220Z,4.85
2018-07-10T13:03:02.290Z,8.70
2018-07-10T13:05:36.394Z,10.13
2018-07-10T13:08:05.004Z,5.47
2018-07-10T13:10:34.305Z,4.65
2018-07-10T13:13:03.509Z,8.20
2018-07-10T13:18:33.273Z,4.50
2018-07-10T13:21:02.163Z,5.53
2018-07-10T13:23:31.786Z,9.53
2018-07-10T13:26:00.330Z,22.15
2018-07-10T13:28:28.901Z,7.53
2018-07-10T13:30:57.449Z,7.08
2018-07-10T13:33:26.957Z,5.20
2018-07-10T13:35:55.539Z,9.10
2018-07-10T13:38:24.803Z,7.05
2018-07-10T13:40:54.221Z,8.20
2018-07-10T13:43:22.767Z,6.62
2018-07-10T13:45:51.991Z,8.75
2018-07-10T13:48:21.872Z,7.12
2018-07-10T13:50:50.390Z,6.55
2018-07-10T13:53:19.038Z,12.30
2018-07-10T13:55:47.544Z,9.60
2018-07-10T13:58:27.520Z,7.12
2018-07-10T14:01:08.198Z,7.28
2018-07-10T14:03:38.112Z,9.20
2018-07-10T14:06:09.569Z,7.72
2018-07-10T14:08:38.533Z,6.30
2018-07-10T14:11:07.755Z,8.70
2018-07-10T14:13:38.274Z,6.87
2018-07-10T14:16:07.826Z,12.00
2018-07-10T14:18:36.385Z,9.70
2018-07-10T14:21:05.909Z,7.12
2018-07-10T14:23:34.549Z,11.03
2018-07-10T14:26:03.076Z,7.53
2018-07-10T14:28:31.590Z,8.85
2018-07-10T14:31:00.610Z,10.55
2018-07-10T14:33:29.161Z,10.60
2018-07-10T14:35:57.985Z,10.18
2018-07-10T14:38:28.454Z,9.98
2018-07-10T14:40:57.496Z,9.90
2018-07-10T14:43:29.741Z,12.03
2018-07-10T14:46:04.927Z,6.53
2018-07-10T14:48:34.661Z,8.43
2018-07-10T14:51:03.585Z,11.90
2018-07-10T14:53:32.856Z,8.80
2018-07-10T14:56:01.826Z,8.60
2018-07-10T14:58:30.432Z,10.18
2018-07-10T15:00:58.913Z,9.28
2018-07-10T15:03:27.755Z,8.35
2018-07-10T15:05:56.640Z,9.40
2018-07-10T15:08:25.527Z,10.93
2018-07-10T15:10:54.493Z,8.43
2018-07-10T15:13:23.018Z,11.22
2018-07-10T15:15:58.745Z,10.00
2018-07-10T15:18:33.397Z,13.30
2018-07-10T15:21:02.409Z,7.37
2018-07-10T15:23:31.323Z,11.55
2018-07-10T15:26:00.687Z,20.75
2018-07-10T15:28:29.387Z,12.37
2018-07-10T15:30:57.930Z,10.93
2018-07-10T15:33:27.385Z,10.08
2018-07-10T15:35:56.579Z,12.58
2018-07-10T15:38:25.676Z,10.32
2018-07-10T15:40:54.887Z,11.18
2018-07-10T15:43:25.081Z,6.30
2018-07-10T15:45:53.705Z,5.72
2018-07-10T15:48:24.401Z,9.70
2018-07-10T15:51:01.461Z,7.70
2018-07-10T15:53:35.977Z,8.50
2018-07-10T15:56:08.917Z,8.28
2018-07-10T15:58:44.570Z,9.80
2018-07-10T16:01:13.122Z,9.93
2018-07-10T16:03:42.648Z,8.40
2018-07-10T16:06:13.085Z,11.22
2018-07-10T16:08:42.685Z,9.40
2018-07-10T16:11:11.206Z,10.32
2018-07-10T16:13:41.774Z,8.60
2018-07-10T16:16:14.827Z,8.15
2018-07-10T16:18:49.752Z,12.23
2018-07-10T16:21:20.002Z,12.95
2018-07-10T16:23:49.598Z,12.98
2018-07-10T16:26:21.938Z,12.55
2018-07-10T16:28:52.594Z,10.60
2018-07-10T16:31:23.435Z,9.58
2018-07-10T16:33:52.238Z,10.65
2018-07-10T16:36:24.647Z,12.58
2018-07-10T16:38:57.460Z,11.40
2018-07-10T16:41:33.078Z,11.95
2018-07-10T16:44:05.497Z,11.57
2018-07-10T16:46:37.081Z,16.50
2018-07-10T16:50:12.209Z,14.33
2018-07-10T16:52:54.987Z,16.82
2018-07-10T16:55:23.733Z,13.15
2018-07-10T16:57:53.437Z,12.25
2018-07-10T17:00:23.629Z,16.60
2018-07-10T17:02:53.475Z,14.03
2018-07-10T17:05:27.663Z,14.00
2018-07-10T17:08:00.734Z,10.80
2018-07-10T17:10:31.518Z,14.75
2018-07-10T17:13:00.552Z,12.82
2018-07-10T17:15:30.024Z,14.63
2018-07-10T17:17:58.585Z,11.63
2018-07-10T17:20:27.147Z,13.38
2018-07-10T17:22:55.667Z,12.88
2018-07-10T17:25:24.294Z,11.53
2018-07-10T17:27:53.728Z,13.68
2018-07-10T17:30:22.681Z,13.43
2018-07-10T17:32:52.200Z,12.85
2018-07-10T17:35:20.884Z,14.90
2018-07-10T17:37:50.122Z,13.80
2018-07-10T17:40:19.664Z,14.23
2018-07-10T17:42:48.972Z,16.75
2018-07-10T17:45:24.236Z,14.58
2018-07-10T17:47:52.910Z,14.07
2018-07-10T17:50:21.555Z,14.35
2018-07-10T17:52:50.107Z,13.08
2018-07-10T17:55:19.082Z,13.10
2018-07-10T17:57:51.191Z,14.40
2018-07-10T18:00:27.555Z,15.03
2018-07-10T18:02:56.410Z,14.28
2018-07-10T18:05:25.403Z,13.30
2018-07-10T18:07:54.815Z,13.55
2018-07-10T18:10:23.872Z,15.03
2018-07-10T18:12:53.192Z,13.83
2018-07-10T18:15:23.275Z,13.58
2018-07-10T18:17:53.285Z,13.53
2018-07-10T18:20:22.317Z,14.20
2018-07-10T18:22:51.553Z,15.72
2018-07-10T18:25:21.342Z,13.40
2018-07-10T18:27:50.262Z,13.75
2018-07-10T18:30:20.628Z,13.20
2018-07-10T18:32:49.648Z,14.07
2018-07-10T18:35:19.166Z,14.03
2018-07-10T18:37:49.122Z,14.85
2018-07-10T18:40:19.565Z,12.95
2018-07-10T18:42:48.510Z,15.05
2018-07-10T18:45:17.634Z,13.78
2018-07-10T18:47:48.021Z,15.13
2018-07-10T18:50:16.722Z,14.95
2018-07-10T18:52:45.278Z,14.73
2018-07-10T18:55:13.868Z,16.75
2018-07-10T18:57:57.607Z,14.43
2018-07-10T19:02:36.969Z,13.15
2018-07-10T19:05:08.553Z,14.43
2018-07-10T19:07:39.525Z,15.90
2018-07-10T19:10:09.180Z,14.30
2018-07-10T19:12:38.967Z,15.13
2018-07-10T19:15:09.919Z,15.15
2018-07-10T19:17:43.703Z,13.43
2018-07-10T19:20:14.755Z,15.38
2018-07-10T19:22:51.014Z,12.98
2018-07-10T19:25:20.083Z,15.98
2018-07-10T19:27:52.273Z,14.63
2018-07-10T19:30:50.239Z,17.45
2018-07-10T19:33:18.818Z,18.90
2018-07-10T19:35:49.402Z,16.27
2018-07-10T19:38:19.789Z,16.95
2018-07-10T19:40:50.145Z,15.80
2018-07-10T19:43:20.182Z,16.40
2018-07-10T19:45:49.801Z,18.17
2018-07-10T19:48:28.706Z,18.92
2018-07-10T19:50:58.498Z,16.27
2018-07-10T19:53:29.658Z,17.50
2018-07-10T19:55:59.377Z,15.32
2018-07-10T19:58:36.856Z,17.67
2018-07-10T20:01:18.228Z,17.40
2018-07-10T20:03:59.163Z,23.18
2018-07-10T20:06:32.556Z,21.27
2018-07-10T20:09:07.605Z,24.95
2018-07-10T20:12:13.824Z,17.92
2018-07-10T20:16:54.221Z,21.40
2018-07-10T20:19:30.075Z,19.10
2018-07-10T20:22:17.654Z,16.73
2018-07-10T20:52:05.953Z,15.00
2018-07-10T20:54:47.725Z,16.10
2018-07-10T20:57:21.638Z,17.77
2018-07-10T20:59:58.357Z,16.60
2018-07-10T21:04:44.502Z,16.48
2018-07-10T21:07:22.946Z,17.50
2018-07-10T21:10:07.116Z,17.73
2018-07-10T21:12:46.269Z,19.75
2018-07-10T21:15:22.439Z,18.02
2018-07-10T21:17:54.904Z,19.85
2018-07-10T21:20:39.835Z,18.35
2018-07-10T21:23:13.569Z,19.45
2018-07-10T21:25:49.415Z,18.85
2018-07-10T21:28:29.064Z,20.25
2018-07-10T21:32:07.182Z,19.67
2018-07-10T21:34:43.788Z,20.68
2018-07-10T21:39:33.268Z,21.97
2018-07-10T21:42:27.440Z,19.40
2018-07-10T21:47:17.336Z,20.57
2018-07-10T21:49:57.343Z,20.12
2018-07-10T21:52:27.685Z,19.70
2018-07-10T21:54:57.730Z,20.55
2018-07-10T21:57:30.737Z,19.60
2018-07-10T22:00:00.141Z,20.52
2018-07-10T22:02:36.442Z,20.15
2018-07-10T22:05:09.051Z,20.48
2018-07-10T22:07:45.340Z,20.20
2018-07-10T22:10:21.828Z,20.97
2018-07-10T22:12:53.486Z,20.45
2018-07-10T22:15:28.027Z,22.00
2018-07-10T22:18:09.967Z,21.85
2018-07-10T22:20:42.600Z,21.77
2018-07-10T22:23:26.740Z,19.77
2018-07-10T22:26:04.635Z,24.05
2018-07-10T22:28:36.706Z,22.00
2018-07-10T22:31:14.339Z,21.12
2018-07-10T22:33:46.456Z,24.67
2018-07-10T22:36:15.173Z,25.92
2018-07-10T22:38:44.172Z,23.67
2018-07-10T22:41:13.079Z,23.98
2018-07-10T22:43:42.649Z,22.93
2018-07-10T22:46:18.373Z,24.75
2018-07-10T22:48:47.705Z,24.47
2018-07-10T22:51:18.659Z,25.05
2018-07-10T22:53:47.898Z,25.62
2018-07-10T22:56:16.494Z,27.15
2018-07-10T22:58:45.101Z,26.00
2018-07-10T23:01:13.634Z,28.57
2018-07-10T23:03:42.231Z,27.55
2018-07-10T23:06:10.758Z,25.02
2018-07-10T23:08:39.447Z,25.72
2018-07-10T23:11:11.346Z,26.12
2018-07-10T23:13:41.825Z,26.60
2018-07-10T23:16:11.272Z,26.90
2018-07-10T23:18:40.840Z,28.00
2018-07-10T23:21:12.064Z,28.85
2018-07-10T23:23:40.742Z,27.62
2018-07-10T23:26:12.162Z,25.85
2018-07-10T23:28:44.538Z,26.42
2018-07-10T23:31:15.561Z,25.65
2018-07-10T23:33:46.616Z,31.27
2018-07-10T23:36:18.083Z,30.37
2018-07-10T23:39:08.617Z,27.52
2018-07-10T23:41:56.039Z,30.45
2018-07-10T23:44:30.488Z,28.10
2018-07-10T23:47:06.875Z,27.27
2018-07-10T23:49:39.493Z,28.83
2018-07-10T23:52:21.748Z,27.10
2018-07-10T23:54:52.544Z,27.48
2018-07-10T23:57:25.282Z,26.57
2018-07-10T23:59:55.839Z,26.73
